Time;durP1;ratioP1;P1;durP2;ratioP2;P2;SDS_P1;SDS_P2;PMS_P1;PMS_P2;Temp;Humidity;BMP_temperature;BMP_pressure;BME280_temperature;BME280_humidity;BME280_pressure;Samples;Min_cycle;Max_cycle;Signal;HPM_P1;HPM_P2
2023/06/11 00:02:03;;;;;;;14.02;8.30;;;19.90;99.90;;;;;;5069201;28;20049;-62
2023/06/11 00:04:34;;;;;;;22.90;9.48;;;19.90;99.90;;;;;;5069616;28;20048;-62
2023/06/11 00:07:05;;;;;;;16.30;8.35;;;19.90;99.90;;;;;;5070952;28;20506;-63
2023/06/11 00:09:33;;;;;;;19.00;8.73;;;19.90;99.90;;;;;;5069270;28;20049;-62
2023/06/11 00:12:00;;;;;;;14.63;9.13;;;19.90;99.90;;;;;;5069362;28;20060;-61
2023/06/11 00:14:28;;;;;;;13.55;8.57;;;19.90;99.90;;;;;;5069165;28;20040;-62
2023/06/11 00:16:56;;;;;;;14.82;8.82;;;19.90;99.90;;;;;;5062526;28;20043;-62
2023/06/11 00:19:28;;;;;;;14.10;8.10;;;19.90;99.90;;;;;;5069242;28;20067;-61
2023/06/11 00:21:58;;;;;;;20.25;8.50;;;19.90;99.90;;;;;;5069536;28;20400;-63
2023/06/11 00:24:27;;;;;;;18.95;8.13;;;19.90;99.90;;;;;;5062195;28;20300;-62
2023/06/11 00:26:55;;;;;;;13.23;7.70;;;;;;;;;;5068291;28;20047;-62
2023/06/11 00:29:23;;;;;;;16.15;8.23;;;19.90;99.90;;;;;;5078286;28;20052;-63
2023/06/11 00:31:50;;;;;;;15.88;8.98;;;19.90;99.90;;;;;;5051107;28;20045;-63
2023/06/11 00:34:18;;;;;;;14.23;7.45;;;19.90;99.90;;;;;;5064591;28;20041;-61
2023/06/11 00:36:46;;;;;;;14.68;7.60;;;19.80;99.90;;;;;;5070355;28;20041;-62
2023/06/11 00:39:14;;;;;;;17.63;8.10;;;19.80;99.90;;;;;;5067007;28;20044;-61
2023/06/11 00:41:45;;;;;;;14.95;7.43;;;19.80;99.90;;;;;;5068566;28;20403;-61
2023/06/11 00:44:17;;;;;;;13.70;7.35;;;19.80;99.90;;;;;;5067282;28;20412;-61
2023/06/11 00:46:47;;;;;;;14.38;7.50;;;19.80;99.90;;;;;;5070172;28;20043;-62
2023/06/11 00:49:15;;;;;;;11.90;7.33;;;19.80;99.90;;;;;;5063891;28;20049;-63
2023/06/11 00:51:45;;;;;;;11.35;7.28;;;19.70;99.90;;;;;;5048503;28;20171;-61
2023/06/11 00:54:16;;;;;;;14.80;6.95;;;19.70;99.90;;;;;;5052510;28;20048;-62
2023/06/11 00:56:44;;;;;;;14.45;7.80;;;19.70;99.90;;;;;;5073355;28;20047;-62
2023/06/11 00:59:13;;;;;;;13.75;7.70;;;19.70;99.90;;;;;;5072369;28;20072;-62
2023/06/11 01:02:08;;;;;;;14.88;6.90;;;19.70;99.90;;;;;;5052763;28;20060;-62
2023/06/11 01:04:39;;;;;;;15.68;8.38;;;19.70;99.90;;;;;;5059310;28;20227;-61
2023/06/11 01:07:13;;;;;;;17.58;9.93;;;19.60;99.90;;;;;;5078953;28;20048;-62
2023/06/11 01:09:43;;;;;;;15.75;8.25;;;19.60;99.90;;;;;;5070978;28;20063;-61
2023/06/11 01:12:12;;;;;;;9.75;6.25;;;19.60;99.90;;;;;;5088610;28;20040;-61
2023/06/11 01:14:40;;;;;;;10.32;6.40;;;19.60;99.90;;;;;;5087284;28;20048;-61
2023/06/11 01:17:15;;;;;;;10.18;6.38;;;19.60;99.90;;;;;;5085718;28;20426;-61
2023/06/11 01:19:58;;;;;;;16.10;6.70;;;19.50;99.90;;;;;;5067137;28;20041;-61
2023/06/11 01:22:31;;;;;;;13.13;6.75;;;19.50;99.90;;;;;;5046868;28;20037;-62
2023/06/11 01:25:15;;;;;;;12.85;6.55;;;19.50;99.90;;;;;;5058572;28;20511;-62
2023/06/11 01:28:07;;;;;;;15.50;6.82;;;19.50;99.90;;;;;;5085159;28;20179;-61
2023/06/11 01:30:49;;;;;;;12.23;6.88;;;19.50;99.90;;;;;;5054267;28;20053;-61
2023/06/11 01:33:18;;;;;;;12.70;5.80;;;19.50;99.90;;;;;;5051838;28;20063;-61
2023/06/11 01:35:52;;;;;;;11.38;5.80;;;19.50;99.90;;;;;;5074087;28;20047;-61
2023/06/11 01:38:21;;;;;;;16.67;6.28;;;19.40;99.90;;;;;;5090525;28;20047;-61
2023/06/11 01:40:50;;;;;;;12.25;5.93;;;19.40;99.90;;;;;;5090456;28;20055;-61
2023/06/11 01:43:18;;;;;;;13.48;6.72;;;19.40;99.90;;;;;;5070175;28;20044;-65
2023/06/11 01:45:46;;;;;;;11.88;5.70;;;19.40;99.90;;;;;;5064718;28;20060;-64
2023/06/11 01:48:15;;;;;;;13.43;6.40;;;19.40;99.90;;;;;;5069123;28;20048;-60
2023/06/11 01:50:42;;;;;;;17.30;5.57;;;19.40;99.90;;;;;;5069272;28;20499;-60
2023/06/11 01:53:11;;;;;;;14.98;5.82;;;19.40;99.90;;;;;;5054478;28;20052;-60
2023/06/11 01:55:42;;;;;;;16.05;5.43;;;19.40;99.90;;;;;;5052814;28;20040;-61
2023/06/11 01:58:11;;;;;;;10.85;5.32;;;19.30;99.90;;;;;;5086449;28;20055;-61
2023/06/11 02:00:40;;;;;;;10.80;5.53;;;19.30;99.90;;;;;;5073619;28;20051;-61
2023/06/11 02:03:08;;;;;;;12.48;5.03;;;19.30;99.90;;;;;;5089693;28;20047;-61
2023/06/11 02:05:36;;;;;;;10.10;5.32;;;19.30;99.90;;;;;;5069200;28;20055;-63
2023/06/11 02:08:04;;;;;;;9.38;5.35;;;19.30;99.90;;;;;;5066614;28;20037;-61
2023/06/11 02:10:32;;;;;;;12.93;5.82;;;19.20;99.90;;;;;;5070045;28;20047;-63
2023/06/11 02:12:59;;;;;;;11.27;5.18;;;19.20;99.90;;;;;;5066348;28;20044;-60
2023/06/11 02:15:27;;;;;;;9.25;5.57;;;19.20;99.90;;;;;;5069844;28;20037;-61
2023/06/11 02:17:55;;;;;;;13.55;5.65;;;19.20;99.90;;;;;;5069965;28;20064;-60
2023/06/11 02:20:22;;;;;;;12.38;6.10;;;19.30;99.90;;;;;;5067377;28;20048;-61
2023/06/11 02:22:50;;;;;;;12.68;5.72;;;19.20;99.90;;;;;;5050844;28;20041;-61
2023/06/11 02:25:18;;;;;;;16.45;5.68;;;19.30;99.90;;;;;;5056165;28;20049;-60
2023/06/11 02:27:49;;;;;;;11.30;5.18;;;19.30;99.90;;;;;;5078785;28;20028;-64
2023/06/11 02:30:17;;;;;;;15.02;5.63;;;19.30;99.90;;;;;;5090048;28;20048;-66
2023/06/11 02:32:45;;;;;;;16.92;6.07;;;19.20;99.90;;;;;;5089952;28;20044;-62
2023/06/11 02:35:13;;;;;;;10.35;5.43;;;19.20;99.90;;;;;;5071027;28;20036;-61
2023/06/11 02:37:41;;;;;;;10.00;5.15;;;19.20;99.90;;;;;;5069906;28;20033;-62
2023/06/11 02:40:09;;;;;;;13.10;6.00;;;19.10;99.90;;;;;;5066371;28;20044;-61
2023/06/11 02:42:37;;;;;;;9.27;5.07;;;19.10;99.90;;;;;;5070918;28;20395;-61
2023/06/11 02:45:05;;;;;;;13.77;5.90;;;19.10;99.90;;;;;;5069459;28;20049;-61
2023/06/11 02:47:33;;;;;;;12.77;5.40;;;19.10;99.90;;;;;;5070831;28;20044;-60
2023/06/11 02:50:01;;;;;;;14.38;5.43;;;19.10;99.90;;;;;;5069337;28;20049;-61
2023/06/11 02:52:29;;;;;;;12.50;5.32;;;19.10;99.90;;;;;;5049775;28;20053;-60
2023/06/11 02:54:56;;;;;;;14.07;5.95;;;19.00;99.90;;;;;;5058984;28;20489;-62
2023/06/11 02:57:24;;;;;;;12.90;5.45;;;19.00;99.90;;;;;;5072502;28;20483;-61
2023/06/11 02:59:52;;;;;;;10.82;5.22;;;19.00;99.90;;;;;;5090789;28;20486;-61
2023/06/11 03:02:20;;;;;;;15.50;6.15;;;18.90;99.90;;;;;;5088553;28;20044;-61
2023/06/11 03:04:47;;;;;;;13.98;5.55;;;18.90;99.90;;;;;;5072578;28;20052;-62
2023/06/11 03:07:15;;;;;;;9.75;5.10;;;18.90;99.90;;;;;;5073152;28;20056;-64
2023/06/11 03:09:43;;;;;;;14.43;5.60;;;18.90;99.90;;;;;;5064154;28;20041;-59
2023/06/11 03:12:11;;;;;;;9.80;4.65;;;18.80;99.90;;;;;;5052791;28;20048;-60
2023/06/11 03:14:40;;;;;;;14.50;5.50;;;18.80;99.90;;;;;;5066225;28;20043;-59
2023/06/11 03:17:07;;;;;;;14.85;5.57;;;18.80;99.90;;;;;;5074209;28;20045;-64
2023/06/11 03:19:35;;;;;;;12.25;4.35;;;18.70;99.90;;;;;;5073779;28;20056;-62
2023/06/11 03:22:04;;;;;;;12.27;5.88;;;18.80;99.90;;;;;;5072980;28;20435;-61
2023/06/11 03:24:32;;;;;;;10.25;5.40;;;18.70;99.90;;;;;;5072678;28;20036;-59
2023/06/11 03:27:10;;;;;;;13.25;5.55;;;18.70;99.90;;;;;;5082184;28;20059;-62
2023/06/11 03:29:38;;;;;;;10.10;4.95;;;18.60;99.90;;;;;;5092826;28;20379;-59
2023/06/11 03:32:06;;;;;;;11.10;5.30;;;18.60;99.90;;;;;;5092851;28;20059;-60
2023/06/11 03:34:38;;;;;;;10.55;5.35;;;18.60;99.90;;;;;;5059673;28;20056;-61
2023/06/11 03:37:06;;;;;;;11.02;4.40;;;18.60;99.90;;;;;;5052759;28;20056;-61
2023/06/11 03:39:34;;;;;;;12.77;5.28;;;18.50;99.90;;;;;;5053480;28;20037;-61
2023/06/11 03:42:02;;;;;;;16.67;5.80;;;18.50;99.90;;;;;;5052139;28;20400;-59
2023/06/11 03:44:31;;;;;;;11.57;4.80;;;18.50;99.90;;;;;;5063838;28;20052;-60
2023/06/11 03:46:59;;;;;;;9.98;4.90;;;18.50;99.90;;;;;;5072668;28;20483;-61
2023/06/11 03:49:27;;;;;;;10.15;4.50;;;18.40;99.90;;;;;;5072286;28;20037;-62
2023/06/11 03:51:55;;;;;;;6.70;4.50;;;18.40;99.90;;;;;;5072199;28;20041;-60
2023/06/11 03:54:23;;;;;;;13.63;4.88;;;18.40;99.90;;;;;;5072010;28;20052;-60
2023/06/11 03:56:51;;;;;;;9.60;5.05;;;18.40;99.90;;;;;;5079232;28;20040;-60
2023/06/11 03:59:19;;;;;;;10.80;3.95;;;18.40;99.90;;;;;;5092298;28;20499;-59
2023/06/11 04:01:46;;;;;;;10.93;5.18;;;18.40;99.90;;;;;;5075344;28;20060;-59
2023/06/11 04:04:14;;;;;;;15.05;4.78;;;18.40;99.90;;;;;;5077395;28;21095;-59
2023/06/11 04:06:43;;;;;;;12.35;5.07;;;18.40;99.90;;;;;;5070221;28;20404;-59
2023/06/11 04:09:11;;;;;;;12.85;5.40;;;18.40;99.90;;;;;;5059544;28;20041;-62
2023/06/11 04:11:39;;;;;;;8.73;4.80;;;18.40;99.90;;;;;;5063327;28;20045;-61
2023/06/11 04:14:07;;;;;;;9.68;4.22;;;18.30;99.90;;;;;;5067920;28;20098;-60
2023/06/11 04:16:34;;;;;;;10.80;4.35;;;18.30;99.90;;;;;;5022409;28;20052;-60
2023/06/11 04:19:03;;;;;;;12.95;4.90;;;18.30;99.90;;;;;;5071661;28;20036;-59
2023/06/11 04:21:30;;;;;;;8.18;3.92;;;18.30;99.90;;;;;;5072827;28;20399;-59
2023/06/11 04:23:58;;;;;;;12.27;4.72;;;18.30;99.90;;;;;;5071652;28;20051;-58
2023/06/11 04:26:27;;;;;;;13.90;4.43;;;18.30;99.90;;;;;;5075204;28;20399;-59
2023/06/11 04:28:56;;;;;;;9.98;4.68;;;18.20;99.90;;;;;;5091513;28;20063;-59
2023/06/11 04:31:29;;;;;;;16.08;4.25;;;18.20;99.90;;;;;;5091764;28;20495;-59
2023/06/11 04:34:03;;;;;;;12.82;4.53;;;18.20;99.90;;;;;;5085136;28;20033;-60
2023/06/11 04:36:33;;;;;;;13.27;4.93;;;18.20;99.90;;;;;;5055598;28;20051;-60
2023/06/11 04:39:01;;;;;;;9.65;4.65;;;18.20;99.90;;;;;;5035023;28;20048;-61
2023/06/11 04:41:31;;;;;;;16.60;4.72;;;18.20;99.90;;;;;;5059822;28;20040;-61
2023/06/11 04:44:00;;;;;;;11.00;4.88;;;18.10;99.90;;;;;;5071091;28;20514;-60
2023/06/11 04:46:32;;;;;;;12.38;4.82;;;18.10;99.90;;;;;;5055172;28;20533;-63
2023/06/11 04:49:04;;;;;;;11.27;4.82;;;18.10;99.90;;;;;;5054241;28;20040;-61
2023/06/11 04:51:33;;;;;;;11.40;5.32;;;18.10;99.90;;;;;;5067802;28;20040;-62
2023/06/11 04:54:07;;;;;;;12.48;5.07;;;18.10;99.90;;;;;;5067508;28;20403;-63
2023/06/11 04:56:38;;;;;;;11.25;5.22;;;18.10;99.90;;;;;;5072297;28;20040;-60
2023/06/11 04:59:08;;;;;;;26.30;5.25;;;18.10;99.90;;;;;;5068722;28;20052;-60
2023/06/11 05:01:37;;;;;;;14.52;4.63;;;18.10;99.90;;;;;;5066723;28;20041;-61
2023/06/11 05:04:06;;;;;;;9.05;4.30;;;18.20;99.90;;;;;;5050968;28;20044;-62
2023/06/11 05:06:34;;;;;;;10.98;4.50;;;18.20;99.90;;;;;;5047077;28;20057;-64
2023/06/11 05:09:04;;;;;;;;;;;18.20;99.90;;;;;;5064107;28;20052;-60
2023/06/11 05:11:32;;;;;;;11.30;4.88;;;18.30;99.90;;;;;;5044249;28;19932;-61
2023/06/11 05:14:00;;;;;;;12.40;5.10;;;18.30;99.90;;;;;;5065893;28;20045;-66
2023/06/11 05:16:28;;;;;;;10.65;5.03;;;18.30;99.90;;;;;;5067467;28;20507;-59
2023/06/11 05:18:56;;;;;;;10.65;5.20;;;18.30;99.90;;;;;;5021733;28;20049;-64
2023/06/11 05:21:24;;;;;;;13.88;4.90;;;18.30;99.90;;;;;;5028564;28;20041;-60
2023/06/11 05:23:53;;;;;;;13.80;5.07;;;18.40;99.90;;;;;;5066061;28;20048;-62
2023/06/11 05:26:33;;;;;;;12.30;4.77;;;18.40;99.90;;;;;;5049846;28;20056;-60
2023/06/11 05:29:04;;;;;;;13.60;4.88;;;18.40;99.90;;;;;;5069227;28;20039;-59
2023/06/11 05:31:35;;;;;;;11.45;4.78;;;18.50;99.90;;;;;;5065627;28;20067;-62
2023/06/11 05:34:05;;;;;;;10.30;4.82;;;18.50;99.90;;;;;;5062611;28;20049;-59
2023/06/11 05:36:33;;;;;;;10.10;4.68;;;18.50;99.90;;;;;;5063613;28;20431;-61
2023/06/11 05:39:02;;;;;;;11.23;4.85;;;18.50;99.90;;;;;;5063444;28;20048;-59
2023/06/11 05:41:30;;;;;;;9.65;4.30;;;18.60;99.90;;;;;;5058162;28;20052;-59
2023/06/11 05:43:58;;;;;;;10.73;4.55;;;18.60;99.90;;;;;;5070189;28;20053;-59
2023/06/11 05:46:26;;;;;;;11.35;4.95;;;18.60;99.90;;;;;;5063217;28;20052;-60
2023/06/11 05:48:55;;;;;;;12.30;4.95;;;18.60;99.90;;;;;;5047813;28;20419;-59
2023/06/11 05:51:22;;;;;;;13.30;4.70;;;18.60;99.90;;;;;;5043913;28;20029;-59
2023/06/11 05:53:51;;;;;;;12.65;4.75;;;18.60;99.90;;;;;;5067523;28;20396;-61
2023/06/11 05:56:21;;;;;;;11.50;4.40;;;18.60;99.90;;;;;;5067595;28;20478;-60
2023/06/11 05:58:50;;;;;;;9.83;4.57;;;18.60;99.90;;;;;;5071094;28;20051;-60
2023/06/11 06:01:17;;;;;;;13.13;4.88;;;18.60;99.90;;;;;;5065462;28;20032;-63
2023/06/11 06:03:45;;;;;;;7.43;4.28;;;18.60;99.90;;;;;;5057895;28;20048;-59
2023/06/11 06:06:13;;;;;;;7.68;4.20;;;18.60;99.90;;;;;;5061625;28;20044;-59
2023/06/11 06:08:42;;;;;;;16.13;4.90;;;18.60;99.90;;;;;;5066188;28;20392;-59
2023/06/11 06:11:17;;;;;;;14.13;4.97;;;18.60;99.90;;;;;;5067722;28;20055;-64
2023/06/11 06:13:45;;;;;;;11.43;4.63;;;18.70;99.90;;;;;;5072950;28;20044;-59
2023/06/11 06:16:14;;;;;;;9.43;4.55;;;18.70;99.90;;;;;;5066666;28;20059;-60
2023/06/11 06:18:44;;;;;;;7.82;4.40;;;18.70;99.90;;;;;;5062515;28;20520;-59
2023/06/11 06:21:12;;;;;;;12.77;5.05;;;18.70;99.90;;;;;;5046417;28;20056;-59
2023/06/11 06:23:39;;;;;;;12.05;4.38;;;18.80;99.90;;;;;;5068756;28;20480;-60
2023/06/11 06:26:12;;;;;;;10.35;4.55;;;18.80;99.90;;;;;;5048929;28;20060;-60
2023/06/11 06:28:40;;;;;;;;;;;18.80;99.90;;;;;;5048882;28;20045;-63
2023/06/11 06:31:12;;;;;;;6.77;4.00;;;18.80;99.90;;;;;;5046499;28;19928;-61
2023/06/11 06:33:41;;;;;;;13.68;4.90;;;18.90;99.90;;;;;;5054512;28;20302;-64
2023/06/11 06:36:09;;;;;;;8.48;3.63;;;18.90;99.90;;;;;;5066228;28;20047;-59
2023/06/11 06:38:40;;;;;;;9.93;4.03;;;19.00;99.90;;;;;;5069561;28;20115;-60
2023/06/11 06:41:08;;;;;;;10.18;3.88;;;19.00;99.90;;;;;;5070419;28;20651;-62
2023/06/11 06:43:36;;;;;;;11.60;4.05;;;19.00;99.90;;;;;;5071106;28;20051;-59
2023/06/11 06:46:10;;;;;;;9.32;4.35;;;19.10;99.90;;;;;;5068493;28;20064;-60
2023/06/11 06:48:39;;;;;;;13.07;4.38;;;19.10;99.90;;;;;;5065435;28;20036;-59
2023/06/11 06:51:08;;;;;;;14.23;4.85;;;19.20;99.90;;;;;;5067667;28;20052;-59
2023/06/11 06:53:40;;;;;;;18.13;4.82;;;19.30;99.90;;;;;;5076547;28;20052;-59
2023/06/11 06:56:08;;;;;;;13.10;4.63;;;19.40;99.90;;;;;;5070951;28;20040;-59
2023/06/11 06:58:37;;;;;;;10.05;4.22;;;19.50;99.90;;;;;;5056209;28;20049;-59
2023/06/11 07:01:05;;;;;;;11.88;4.53;;;19.60;99.90;;;;;;5048867;28;20044;-60
2023/06/11 07:03:34;;;;;;;12.55;4.75;;;19.70;99.90;;;;;;5049187;28;20639;-59
2023/06/11 07:06:02;;;;;;;9.43;3.67;;;19.80;99.90;;;;;;5046552;28;20057;-59
2023/06/11 07:08:32;;;;;;;14.63;4.07;;;19.90;99.90;;;;;;5069007;28;20383;-59
2023/06/11 07:11:00;;;;;;;10.38;4.32;;;20.00;99.90;;;;;;5049441;28;20185;-60
2023/06/11 07:13:36;;;;;;;13.18;4.82;;;20.10;99.90;;;;;;5071863;28;20457;-59
2023/06/11 07:16:06;;;;;;;8.47;4.03;;;20.10;99.90;;;;;;5069596;28;20392;-60
2023/06/11 07:18:36;;;;;;;;;;;20.20;99.90;;;;;;5068634;28;20052;-60
2023/06/11 07:21:04;;;;;;;9.82;4.32;;;20.20;99.90;;;;;;5070794;28;19920;-60
2023/06/11 07:23:32;;;;;;;10.15;4.70;;;20.20;99.90;;;;;;5070470;28;20405;-59
2023/06/11 07:26:03;;;;;;;10.43;4.05;;;20.30;99.90;;;;;;5067874;28;20041;-60
2023/06/11 07:28:31;;;;;;;11.45;4.28;;;20.30;99.90;;;;;;5076776;28;20056;-59
2023/06/11 07:31:00;;;;;;;8.95;3.83;;;20.40;99.90;;;;;;5069377;28;20055;-60
2023/06/11 07:33:29;;;;;;;13.50;4.10;;;20.50;99.90;;;;;;5065160;28;20539;-61
2023/06/11 07:35:59;;;;;;;9.20;4.55;;;20.50;99.90;;;;;;5065340;28;20056;-59
2023/06/11 07:38:28;;;;;;;9.88;4.20;;;20.60;99.90;;;;;;5061110;28;20049;-62
2023/06/11 07:40:56;;;;;;;14.93;4.10;;;20.70;99.90;;;;;;5069265;28;20059;-59
2023/06/11 07:43:25;;;;;;;11.30;4.68;;;20.80;99.90;;;;;;5075548;28;20614;-60
2023/06/11 07:45:53;;;;;;;14.82;4.65;;;20.80;99.90;;;;;;5069103;28;20048;-59
2023/06/11 07:48:21;;;;;;;9.68;4.00;;;20.90;99.90;;;;;;5068546;28;20053;-61
2023/06/11 07:50:52;;;;;;;12.13;4.47;;;21.00;99.90;;;;;;5062169;28;20049;-59
2023/06/11 07:53:24;;;;;;;11.45;4.95;;;21.00;99.90;;;;;;5042054;28;20040;-59
2023/06/11 07:55:56;;;;;;;11.45;4.53;;;21.10;99.90;;;;;;5065568;28;20048;-59
2023/06/11 07:58:25;;;;;;;7.88;4.05;;;21.20;99.90;;;;;;5065893;28;20049;-60
2023/06/11 08:00:53;;;;;;;13.73;5.22;;;21.30;99.90;;;;;;5059282;28;20553;-60
2023/06/11 08:03:21;;;;;;;10.25;4.50;;;21.40;99.90;;;;;;5058741;28;20227;-59
2023/06/11 08:05:49;;;;;;;10.85;5.15;;;21.50;99.90;;;;;;5048961;28;20056;-60
2023/06/11 08:08:16;;;;;;;11.27;4.82;;;21.70;99.90;;;;;;5058645;28;20052;-62
2023/06/11 08:10:45;;;;;;;9.60;4.45;;;21.80;99.90;;;;;;5060909;28;20052;-59
2023/06/11 08:13:14;;;;;;;12.90;5.07;;;21.90;99.90;;;;;;5060044;28;20083;-60
2023/06/11 08:15:42;;;;;;;9.82;4.50;;;;;;;;;;5069249;28;20052;-60
2023/06/11 08:18:10;;;;;;;15.95;5.05;;;22.20;99.90;;;;;;5069191;28;20040;-59
2023/06/11 08:20:37;;;;;;;13.73;4.95;;;22.30;99.90;;;;;;5054130;28;20056;-60
2023/06/11 08:23:05;;;;;;;10.52;4.88;;;22.40;99.90;;;;;;5059810;28;20048;-59
2023/06/11 08:25:33;;;;;;;11.80;4.93;;;22.50;99.90;;;;;;5069290;28;20048;-59
2023/06/11 08:28:01;;;;;;;11.77;5.05;;;22.60;99.90;;;;;;5068924;28;20056;-66
2023/06/11 08:30:29;;;;;;;13.45;5.18;;;22.70;99.90;;;;;;5068152;28;20408;-60
2023/06/11 08:32:57;;;;;;;10.85;4.72;;;22.70;99.90;;;;;;5068358;28;20402;-62
2023/06/11 08:35:25;;;;;;;10.80;5.07;;;22.80;99.90;;;;;;5055776;28;20507;-60
2023/06/11 08:37:53;;;;;;;13.55;5.40;;;23.00;99.90;;;;;;5055856;28;20051;-61
2023/06/11 08:40:21;;;;;;;12.75;5.43;;;23.00;99.90;;;;;;5068950;28;20044;-61
2023/06/11 08:42:50;;;;;;;13.18;4.93;;;23.10;99.90;;;;;;5065025;28;20041;-60
2023/06/11 08:45:18;;;;;;;11.48;4.97;;;23.20;99.90;;;;;;5069037;28;20056;-60
2023/06/11 08:47:52;;;;;;;12.38;4.28;;;23.20;99.90;;;;;;5068781;28;20567;-61
2023/06/11 08:50:23;;;;;;;12.35;4.50;;;23.20;99.90;;;;;;5063657;28;20055;-63
2023/06/11 08:52:51;;;;;;;12.20;5.03;;;23.30;99.90;;;;;;5063102;28;20055;-60
2023/06/11 08:55:19;;;;;;;12.43;5.03;;;23.30;99.90;;;;;;5060127;28;20045;-62
2023/06/11 08:57:50;;;;;;;14.75;4.78;;;23.40;99.90;;;;;;5053134;28;20052;-63
2023/06/11 09:00:19;;;;;;;11.30;4.82;;;23.40;99.90;;;;;;5068291;28;20048;-60
2023/06/11 09:02:47;;;;;;;12.43;4.97;;;23.50;99.90;;;;;;5068260;28;20075;-62
2023/06/11 09:05:17;;;;;;;14.55;5.28;;;23.50;99.90;;;;;;5062679;28;20081;-60
2023/06/11 09:07:52;;;;;;;11.85;5.25;;;23.60;99.90;;;;;;5054346;28;20049;-60
2023/06/11 09:10:20;;;;;;;12.60;5.13;;;23.60;99.90;;;;;;5066983;28;20059;-61
2023/06/11 09:12:49;;;;;;;13.50;5.78;;;23.60;99.90;;;;;;5070646;28;20045;-60
2023/06/11 09:15:17;;;;;;;12.90;4.95;;;23.70;99.90;;;;;;5068553;28;20071;-59
2023/06/11 09:17:48;;;;;;;13.93;5.53;;;23.80;99.90;;;;;;5068337;28;20053;-60
2023/06/11 09:20:16;;;;;;;13.13;5.35;;;23.80;99.90;;;;;;5063359;28;20055;-61
2023/06/11 09:22:45;;;;;;;12.10;5.05;;;23.90;99.90;;;;;;5062600;28;20055;-60
2023/06/11 09:25:17;;;;;;;15.13;5.53;;;23.90;99.90;;;;;;5068447;28;20052;-60
2023/06/11 09:27:47;;;;;;;10.90;5.65;;;24.00;99.90;;;;;;5058357;28;20052;-60
2023/06/11 09:30:19;;;;;;;11.70;5.78;;;24.10;99.90;;;;;;5068259;28;20068;-60
2023/06/11 09:32:48;;;;;;;13.95;6.63;;;24.10;99.90;;;;;;5074571;28;20534;-63
2023/06/11 09:35:17;;;;;;;11.70;5.53;;;24.20;99.90;;;;;;5076856;28;20598;-60
2023/06/11 09:37:52;;;;;;;11.75;5.22;;;24.40;99.90;;;;;;5060608;28;20418;-60
2023/06/11 09:40:23;;;;;;;10.98;5.03;;;24.40;99.90;;;;;;5052235;28;20128;-59
2023/06/11 09:42:51;;;;;;;13.85;6.35;;;24.50;99.90;;;;;;5055252;28;20074;-60
2023/06/11 09:45:20;;;;;;;12.50;5.57;;;24.50;99.90;;;;;;5063288;28;20040;-60
2023/06/11 09:47:50;;;;;;;15.63;7.22;;;24.60;99.90;;;;;;5066791;28;20059;-61
2023/06/11 09:50:20;;;;;;;11.43;5.20;;;24.70;99.90;;;;;;5062327;28;20041;-60
2023/06/11 09:52:48;;;;;;;10.50;5.68;;;24.70;99.90;;;;;;5053617;28;20040;-62
2023/06/11 09:55:15;;;;;;;11.60;5.85;;;24.80;99.90;;;;;;5048383;28;20051;-62
2023/06/11 09:57:43;;;;;;;17.25;6.30;;;24.90;99.90;;;;;;5052717;28;20063;-60
2023/06/11 10:00:12;;;;;;;12.60;5.85;;;24.90;99.90;;;;;;5067342;28;20040;-60
2023/06/11 10:02:41;;;;;;;;;;;25.10;99.90;;;;;;5060885;28;20045;-59
2023/06/11 10:05:11;;;;;;;10.35;5.40;;;25.20;99.90;;;;;;5063128;28;20454;-61
2023/06/11 10:07:48;;;;;;;16.20;6.40;;;25.30;99.90;;;;;;5053797;28;20041;-61
2023/06/11 10:10:21;;;;;;;9.43;5.55;;;25.30;99.90;;;;;;5067747;28;20040;-60
2023/06/11 10:12:52;;;;;;;14.38;6.07;;;25.40;99.90;;;;;;5078638;28;20483;-59
2023/06/11 10:15:24;;;;;;;17.55;5.82;;;25.50;99.90;;;;;;5071059;28;20078;-61
2023/06/11 10:17:53;;;;;;;16.08;6.82;;;25.60;99.90;;;;;;5070559;28;20488;-61
2023/06/11 10:20:21;;;;;;;10.23;6.07;;;25.70;99.90;;;;;;5067582;28;20507;-60
2023/06/11 10:22:49;;;;;;;9.35;5.38;;;25.90;99.90;;;;;;5065175;28;20507;-60
2023/06/11 10:25:17;;;;;;;14.55;6.68;;;26.00;99.90;;;;;;5071495;28;20057;-61
2023/06/11 10:27:44;;;;;;;9.60;5.70;;;26.20;99.90;;;;;;5066679;28;20506;-60
2023/06/11 10:30:23;;;;;;;14.13;6.78;;;26.30;99.90;;;;;;5049820;28;20052;-60
2023/06/11 10:32:53;;;;;;;13.02;6.38;;;26.50;99.70;;;;;;5068268;28;20079;-60
2023/06/11 10:35:24;;;;;;;13.52;6.60;;;26.60;99.20;;;;;;5067701;28;20056;-60
2023/06/11 10:38:03;;;;;;;14.05;6.45;;;26.80;98.90;;;;;;5069976;28;20047;-60
2023/06/11 10:40:32;;;;;;;15.65;6.20;;;26.90;98.60;;;;;;5071495;28;20048;-62
2023/06/11 10:43:00;;;;;;;11.88;5.30;;;27.10;98.70;;;;;;5078080;28;20545;-60
2023/06/11 10:45:36;;;;;;;12.88;6.15;;;27.20;98.90;;;;;;5071256;28;20044;-60
2023/06/11 10:48:04;;;;;;;13.02;6.05;;;27.40;98.60;;;;;;5070947;28;20647;-61
2023/06/11 10:50:33;;;;;;;14.18;6.70;;;27.50;98.30;;;;;;5062358;28;20067;-61
2023/06/11 10:53:08;;;;;;;12.20;6.18;;;27.60;97.90;;;;;;5048178;28;20052;-63
2023/06/11 10:55:44;;;;;;;16.02;6.00;;;27.70;97.90;;;;;;5070784;28;20053;-60
2023/06/11 10:58:27;;;;;;;10.93;5.32;;;27.90;97.90;;;;;;5070774;28;20044;-60
2023/06/11 11:00:55;;;;;;;10.27;4.85;;;28.10;97.50;;;;;;5070945;28;20045;-59
2023/06/11 11:03:24;;;;;;;11.73;5.78;;;28.20;97.20;;;;;;5070678;28;20037;-61
2023/06/11 11:05:53;;;;;;;10.52;5.60;;;28.30;96.90;;;;;;5047475;28;20064;-60
2023/06/11 11:08:21;;;;;;;11.73;5.80;;;28.40;96.90;;;;;;5060740;28;20051;-63
2023/06/11 11:11:02;;;;;;;12.85;6.28;;;28.50;96.40;;;;;;5069761;28;20043;-61
2023/06/11 11:13:30;;;;;;;14.90;5.97;;;28.50;96.40;;;;;;5069120;28;20649;-65
2023/06/11 11:16:00;;;;;;;11.02;5.75;;;28.60;96.20;;;;;;5070630;28;20063;-61
2023/06/11 11:18:28;;;;;;;14.30;5.70;;;28.70;96.20;;;;;;5068667;28;20052;-61
2023/06/11 11:20:56;;;;;;;9.20;5.43;;;28.90;96.20;;;;;;5064212;28;20049;-60
2023/06/11 11:23:24;;;;;;;11.65;5.43;;;28.90;96.00;;;;;;5060697;28;20048;-61
2023/06/11 11:25:52;;;;;;;10.20;5.55;;;29.00;96.00;;;;;;5069401;28;20052;-61
2023/06/11 11:28:20;;;;;;;9.77;5.43;;;29.10;95.80;;;;;;5060543;28;20055;-60
2023/06/11 11:30:51;;;;;;;13.43;6.05;;;29.00;94.90;;;;;;5051814;28;20396;-60
2023/06/11 11:33:18;;;;;;;11.15;5.85;;;29.00;95.10;;;;;;5061740;28;20052;-69
2023/06/11 11:35:49;;;;;;;15.25;6.05;;;29.00;95.00;;;;;;5067634;28;20399;-67
2023/06/11 11:38:17;;;;;;;11.63;5.97;;;28.90;95.10;;;;;;5068864;28;20060;-67
2023/06/11 11:40:46;;;;;;;16.48;6.40;;;28.90;95.40;;;;;;5070364;28;20498;-69
2023/06/11 11:43:14;;;;;;;13.10;5.78;;;29.00;95.70;;;;;;5062756;28;20040;-62
2023/06/11 11:45:48;;;;;;;12.57;5.63;;;29.00;95.60;;;;;;5070064;28;20048;-60
2023/06/11 11:48:16;;;;;;;10.88;5.53;;;29.20;95.60;;;;;;5069967;28;20059;-62
2023/06/11 11:50:47;;;;;;;12.98;5.90;;;29.50;95.10;;;;;;5055204;28;20048;-60
2023/06/11 11:53:18;;;;;;;8.77;5.45;;;29.60;94.60;;;;;;5060993;28;20036;-62
2023/06/11 11:55:46;;;;;;;14.05;6.47;;;29.50;94.30;;;;;;5068729;28;20511;-62
2023/06/11 11:58:39;;;;;;;11.30;6.07;;;29.40;94.30;;;;;;5076554;28;20048;-63
2023/06/11 12:01:21;;;;;;;14.88;6.45;;;29.20;94.60;;;;;;5069741;28;20051;-63
2023/06/11 12:03:57;;;;;;;13.43;5.93;;;29.10;94.70;;;;;;5067763;28;20040;-63
2023/06/11 12:06:26;;;;;;;14.00;6.38;;;29.30;95.00;;;;;;5063664;28;20053;-63
2023/06/11 12:08:53;;;;;;;13.10;6.10;;;29.50;94.90;;;;;;5063151;28;20053;-63
2023/06/11 12:11:22;;;;;;;12.27;5.72;;;29.90;95.00;;;;;;5068666;28;20401;-62
2023/06/11 12:13:49;;;;;;;17.38;5.72;;;30.20;94.60;;;;;;5065767;28;20049;-69
2023/06/11 12:16:20;;;;;;;12.02;5.85;;;30.40;93.90;;;;;;5048257;28;20060;-62
2023/06/11 12:18:48;;;;;;;12.85;6.20;;;30.50;93.80;;;;;;5054468;28;20049;-67
2023/06/11 12:21:16;;;;;;;12.55;6.30;;;30.60;93.40;;;;;;5049572;28;20408;-66
2023/06/11 12:23:44;;;;;;;14.25;6.68;;;30.50;92.90;;;;;;5069547;28;20051;-62
2023/06/11 12:26:11;;;;;;;11.02;6.43;;;30.40;92.80;;;;;;5051895;28;20526;-62
2023/06/11 12:28:39;;;;;;;14.65;6.38;;;30.40;93.20;;;;;;5085572;28;20056;-64
2023/06/11 12:31:08;;;;;;;10.02;5.50;;;30.60;93.20;;;;;;5069310;28;20491;-61
2023/06/11 12:33:35;;;;;;;14.25;6.45;;;30.80;92.70;;;;;;5075995;28;20048;-61
2023/06/11 12:36:03;;;;;;;12.98;6.28;;;30.90;92.80;;;;;;5049261;28;20041;-62
2023/06/11 12:38:31;;;;;;;12.52;6.13;;;31.20;92.90;;;;;;5060482;28;20045;-64
2023/06/11 12:40:59;;;;;;;14.95;5.95;;;31.60;92.80;;;;;;5069060;28;20526;-62
2023/06/11 12:43:27;;;;;;;13.68;5.85;;;31.90;92.10;;;;;;5081283;28;20048;-63
2023/06/11 12:45:54;;;;;;;8.95;5.65;;;32.10;91.30;;;;;;5079350;28;20049;-62
2023/06/11 12:48:22;;;;;;;16.10;6.30;;;32.30;91.30;;;;;;5067414;28;20049;-63
2023/06/11 12:50:50;;;;;;;8.52;6.28;;;32.50;90.40;;;;;;5068841;28;20040;-62
2023/06/11 12:53:18;;;;;;;11.60;5.68;;;32.90;90.20;;;;;;5063661;28;20053;-63